Ludington, Michigan
Current Conditions -  °F | °C
As of 9:55 AM on Wednesday 22 Oct 2014 (Local Time) from KLDM Reporting Station
Clear Clear  
Wind Chill: 34°   Ceiling: Unl
Heat Index: 34°   Visibility: 10mi
Dew Point: 33°   Wind: 3mph
Humidity: 97%   Direction: 70°ENE
Pressure: 30.4"   Gusts: NA
Location:  43.96°N, 86.45°W
Report Text: KLDM 221355Z AUTO 07003KT 10SM CLR 01/01 A3040 RMK AO2 T00120007
Loading
Personal Weather Stations






























Interactive Weather Map
Tropical Storm Tracking
New forecast layout! Learn more

10-Day Weather Forecast

Advertisements
Track Severe Weather on mobile